Time;durP1;ratioP1;P1;durP2;ratioP2;P2;SDS_P1;SDS_P2;PMS_P1;PMS_P2;Temp;Humidity;BMP_temperature;BMP_pressure;BME280_temperature;BME280_humidity;BME280_pressure;Samples;Min_cycle;Max_cycle;Signal;HPM_P1;HPM_P2
2022/01/11 00:00:35;;;;;;;;;27.25;21.75;;;;;-149.69;100.00;58464.25;6235142;22;9741;-96
2022/01/11 00:03:05;;;;;;;;;24.75;24.75;;;;;-149.69;100.00;58464.25;6256921;22;9745;-96
2022/01/11 00:05:49;;;;;;;;;28.50;25.75;;;;;-149.69;100.00;58464.25;6234119;22;9685;-96
2022/01/11 00:08:17;;;;;;;;;27.50;21.25;;;;;-149.69;100.00;58464.25;6233229;22;9670;-96
2022/01/11 00:10:51;;;;;;;;;31.75;24.50;;;;;-149.69;100.00;58464.25;6260834;22;9604;-96
2022/01/11 00:13:42;;;;;;;;;26.50;22.75;;;;;-149.69;100.00;58464.25;6290947;22;9710;-96
2022/01/11 00:16:11;;;;;;;;;33.75;24.00;;;;;-149.69;100.00;58464.25;6290472;22;9640;-96
2022/01/11 00:18:37;;;;;;;;;24.25;22.25;;;;;-149.69;100.00;58464.25;6293193;22;10689;-96
2022/01/11 00:21:03;;;;;;;;;27.75;25.25;;;;;-149.69;100.00;58464.25;6292642;22;9785;-96
2022/01/11 00:25:56;;;;;;;;;25.25;21.00;;;;;-149.69;100.00;58464.25;6295048;22;9758;-96
2022/01/11 00:28:23;;;;;;;;;31.00;26.75;;;;;-149.69;100.00;58464.25;6296195;22;8734;-96
2022/01/11 00:30:50;;;;;;;;;25.00;20.00;;;;;-149.69;100.00;58464.25;6292383;22;9709;-96
2022/01/11 00:33:21;;;;;;;;;33.75;26.50;;;;;-149.69;100.00;58464.25;6290944;22;9600;-96
2022/01/11 00:36:00;;;;;;;;;33.50;26.50;;;;;-149.69;100.00;58464.25;6290898;22;9531;-96
2022/01/11 00:38:29;;;;;;;;;34.50;28.00;;;;;-149.69;100.00;58464.25;6288407;22;9621;-96
2022/01/11 00:40:57;;;;;;;;;32.25;25.25;;;;;-149.69;100.00;58464.25;6268644;22;9712;-96
2022/01/11 00:43:25;;;;;;;;;26.50;22.75;;;;;-149.69;100.00;58464.25;6289516;22;9835;-96
2022/01/11 00:45:53;;;;;;;;;27.25;24.75;;;;;-149.69;100.00;58464.25;6290254;22;9771;-96
2022/01/11 00:48:19;;;;;;;;;24.50;22.50;;;;;-149.69;100.00;58464.25;6287346;22;9692;-96
2022/01/11 00:50:44;;;;;;;;;31.00;28.75;;;;;-149.69;100.00;58464.25;6289429;22;9760;-96
2022/01/11 00:53:10;;;;;;;;;31.25;26.75;;;;;-149.69;100.00;58464.25;6291492;22;9771;-96
2022/01/11 00:55:36;;;;;;;;;28.00;22.75;;;;;-149.69;100.00;58464.25;6266517;22;8784;-96
2022/01/11 00:58:02;;;;;;;;;15.50;15.50;;;;;-149.69;100.00;58464.25;6292151;22;8746;-96
2022/01/11 01:00:32;;;;;;;;;25.50;20.75;;;;;-149.69;100.00;58464.25;6293806;22;8773;-95
2022/01/11 01:02:58;;;;;;;;;26.50;21.00;;;;;-149.69;100.00;58464.25;6295525;22;9592;-96
2022/01/11 01:05:23;;;;;;;;;22.67;19.67;;;;;-149.69;100.00;58464.25;6297165;22;9647;-96
2022/01/11 01:07:50;;;;;;;;;28.00;23.00;;;;;-149.69;100.00;58464.25;6294352;22;8731;-96
2022/01/11 01:10:25;;;;;;;;;30.25;23.25;;;;;-149.69;100.00;58464.25;6292519;22;8683;-96
2022/01/11 01:12:55;;;;;;;;;24.00;20.75;;;;;-149.69;100.00;58464.25;6288713;22;9682;-96
2022/01/11 01:15:21;;;;;;;;;26.50;21.00;;;;;-149.69;100.00;58464.25;6289118;22;9497;-96
2022/01/11 01:17:46;;;;;;;;;24.75;21.25;;;;;-149.69;100.00;58464.25;6287544;22;9778;-96
2022/01/11 01:20:12;;;;;;;;;32.50;25.50;;;;;-149.69;100.00;58464.25;6287708;22;8754;-96
2022/01/11 01:22:38;;;;;;;;;28.50;24.25;;;;;-149.69;100.00;58464.25;6286537;22;8754;-96
2022/01/11 01:25:04;;;;;;;;;27.75;24.00;;;;;-149.69;100.00;58464.25;6287728;22;8758;-96
2022/01/11 01:27:30;;;;;;;;;30.75;24.75;;;;;-149.69;100.00;58464.25;6289318;22;8746;-96
2022/01/11 01:29:55;;;;;;;;;23.50;19.50;;;;;-149.69;100.00;58464.25;6263300;22;11459;-96
2022/01/11 01:32:21;;;;;;;;;25.00;25.00;;;;;-149.69;100.00;58464.25;6289882;22;8823;-96
2022/01/11 01:34:49;;;;;;;;;31.00;26.25;;;;;-149.69;100.00;58464.25;6288188;22;8758;-96
2022/01/11 01:37:14;;;;;;;;;27.25;24.75;;;;;-149.69;100.00;58464.25;6289746;22;9634;-96
2022/01/11 01:39:40;;;;;;;;;22.50;19.00;;;;;-149.69;100.00;58464.25;6289516;22;9705;-96
2022/01/11 01:42:08;;;;;;;;;20.75;19.50;;;;;-149.69;100.00;58464.25;6289682;22;8770;-96
2022/01/11 01:44:34;;;;;;;;;27.00;25.25;;;;;-149.69;100.00;58464.25;6288150;22;8750;-96
2022/01/11 01:46:59;;;;;;;;;19.75;19.25;;;;;-149.69;100.00;58464.25;6289932;22;9850;-96
2022/01/11 01:49:25;;;;;;;;;24.75;20.75;;;;;-149.69;100.00;58464.25;6291198;22;10464;-96
2022/01/11 01:51:52;;;;;;;;;25.50;21.25;;;;;-149.69;100.00;58464.25;6296690;22;8710;-96
2022/01/11 01:54:18;;;;;;;;;27.75;19.75;;;;;-149.69;100.00;58464.25;6295738;22;9751;-96
2022/01/11 01:56:44;;;;;;;;;24.50;18.75;;;;;-149.69;100.00;58464.25;6267716;22;9737;-96
2022/01/11 01:59:10;;;;;;;;;30.00;25.25;;;;;-149.69;100.00;58464.25;6291660;22;9574;-96
2022/01/11 02:01:44;;;;;;;;;21.25;20.25;;;;;-149.69;100.00;58464.25;6293130;22;8965;-96
2022/01/11 02:04:10;;;;;;;;;23.50;20.25;;;;;-149.69;100.00;58464.25;6292869;22;9738;-96
2022/01/11 02:06:36;;;;;;;;;21.00;18.75;;;;;-149.69;100.00;58464.25;6293537;22;9637;-96
2022/01/11 02:09:03;;;;;;;;;25.50;19.00;;;;;-149.69;100.00;58464.25;6292552;22;10621;-96
2022/01/11 02:11:31;;;;;;;;;29.00;24.25;;;;;-149.69;100.00;58464.25;6293152;22;9940;-96
2022/01/11 02:13:57;;;;;;;;;22.25;20.00;;;;;-149.69;100.00;58464.25;6290482;22;9929;-96
2022/01/11 02:16:23;;;;;;;;;19.25;18.00;;;;;-149.69;100.00;58464.25;6290237;22;9813;-96
2022/01/11 02:18:50;;;;;;;;;28.50;23.25;;;;;-149.69;100.00;58464.25;6289567;22;8916;-96
2022/01/11 02:21:15;;;;;;;;;29.75;24.00;;;;;-149.69;100.00;58464.25;6291012;22;9604;-96
2022/01/11 02:23:41;;;;;;;;;29.75;23.50;;;;;-149.69;100.00;58464.25;6291273;22;9793;-96
2022/01/11 02:26:07;;;;;;;;;26.75;24.75;;;;;-149.69;100.00;58464.25;6289365;22;9813;-96
2022/01/11 02:28:32;;;;;;;;;28.50;21.75;;;;;-149.69;100.00;58464.25;6288348;22;8734;-96
2022/01/11 02:31:01;;;;;;;;;26.50;21.00;;;;;-149.69;100.00;58464.25;6290688;22;8798;-96
2022/01/11 02:33:38;;;;;;;;;26.00;21.75;;;;;-149.69;100.00;58464.25;6294896;22;8717;-96
2022/01/11 02:36:11;;;;;;;;;28.00;23.25;;;;;-149.69;100.00;58464.25;6293687;22;9746;-96
2022/01/11 02:38:37;;;;;;;;;24.75;19.50;;;;;-149.69;100.00;58464.25;6298054;22;9708;-96
2022/01/11 02:41:03;;;;;;;;;28.25;24.00;;;;;-149.69;100.00;58464.25;6298785;22;9618;-96
2022/01/11 02:43:29;;;;;;;;;28.00;22.25;;;;;-149.69;100.00;58464.25;6292518;22;8722;-96
2022/01/11 02:45:55;;;;;;;;;31.75;23.50;;;;;-149.69;100.00;58464.25;6291520;22;9876;-96
2022/01/11 02:48:21;;;;;;;;;41.75;30.75;;;;;-149.69;100.00;58464.25;6292608;22;8773;-96
2022/01/11 02:50:48;;;;;;;;;28.25;24.00;;;;;-149.69;100.00;58464.25;6293887;22;9966;-96
2022/01/11 02:53:14;;;;;;;;;36.25;28.50;;;;;-149.69;100.00;58464.25;6295342;22;9878;-96
2022/01/11 02:55:41;;;;;;;;;35.50;29.25;;;;;-149.69;100.00;58464.25;6293633;22;9706;-96
2022/01/11 02:58:07;;;;;;;;;32.00;27.75;;;;;-149.69;100.00;58464.25;6266965;22;9702;-96
2022/01/11 03:00:33;;;;;;;;;32.25;29.50;;;;;-149.69;100.00;58464.25;6290428;22;9854;-96
2022/01/11 03:03:13;;;;;;;;;37.00;29.00;;;;;-149.69;100.00;58464.25;6290785;22;8929;-96
2022/01/11 03:05:52;;;;;;;;;38.25;31.00;;;;;-149.69;100.00;58464.25;6292945;22;10733;-96
2022/01/11 03:08:18;;;;;;;;;36.00;32.50;;;;;-149.69;100.00;58464.25;6291919;22;9844;-96
2022/01/11 03:10:45;;;;;;;;;30.25;26.00;;;;;-149.69;100.00;58464.25;6292077;22;9816;-96
2022/01/11 03:13:11;;;;;;;;;34.00;26.25;;;;;-149.69;100.00;58464.25;6290846;22;9799;-96
2022/01/11 03:15:38;;;;;;;;;35.00;29.50;;;;;-149.69;100.00;58464.25;6290819;22;9583;-96
2022/01/11 03:18:05;;;;;;;;;31.75;25.25;;;;;-149.69;100.00;58464.25;6291493;22;9703;-96
2022/01/11 03:20:34;;;;;;;;;28.50;25.25;;;;;-149.69;100.00;58464.25;6295142;22;9863;-96
2022/01/11 03:22:59;;;;;;;;;29.25;23.00;;;;;-149.69;100.00;58464.25;6292012;22;9720;-96
2022/01/11 03:25:25;;;;;;;;;34.50;24.50;;;;;-149.69;100.00;58464.25;6297102;22;9850;-96
2022/01/11 03:27:51;;;;;;;;;34.25;30.00;;;;;-149.69;100.00;58464.25;6298500;22;8885;-96
2022/01/11 03:30:17;;;;;;;;;31.50;23.25;;;;;-149.69;100.00;58464.25;6296747;22;8686;-96
2022/01/11 03:32:42;;;;;;;;;28.75;26.25;;;;;-149.69;100.00;58464.25;6292508;22;9802;-96
2022/01/11 03:35:10;;;;;;;;;33.00;28.75;;;;;-149.69;100.00;58464.25;6292936;22;8860;-96
2022/01/11 03:37:36;;;;;;;;;36.50;28.75;;;;;-149.69;100.00;58464.25;6264912;22;8766;-96
2022/01/11 03:40:05;;;;;;;;;39.50;32.50;;;;;-149.69;100.00;58464.25;6267938;22;10078;-96
2022/01/11 03:42:30;;;;;;;;;33.50;26.25;;;;;-149.69;100.00;58464.25;6265722;22;10096;-96
2022/01/11 03:44:56;;;;;;;;;31.00;23.00;;;;;-149.69;100.00;58464.25;6291975;22;9964;-96
2022/01/11 03:47:22;;;;;;;;;31.00;29.50;;;;;-149.69;100.00;58464.25;6292845;22;8769;-96
2022/01/11 03:49:48;;;;;;;;;28.00;24.75;;;;;-149.69;100.00;58464.25;6291705;22;8746;-96
2022/01/11 03:52:13;;;;;;;;;29.00;23.50;;;;;-149.69;100.00;58464.25;6291218;22;9886;-96
2022/01/11 03:55:31;;;;;;;;;27.50;22.75;;;;;-149.69;100.00;58464.25;6289704;22;8750;-96
2022/01/11 03:57:29;;;;;;;;;18.25;13.75;;;;;-149.69;100.00;58464.25;6276051;22;8769;-96
2022/01/11 03:59:55;;;;;;;;;25.00;22.25;;;;;-149.69;100.00;58464.25;6286919;22;9694;-96
2022/01/11 04:02:22;;;;;;;;;24.75;23.25;;;;;-149.69;100.00;58464.25;6287525;22;9770;-96
2022/01/11 04:04:52;;;;;;;;;34.75;23.00;;;;;-149.69;100.00;58464.25;6289170;22;9806;-96
2022/01/11 04:07:25;;;;;;;;;33.75;26.75;;;;;-149.69;100.00;58464.25;6289041;22;9806;-96
2022/01/11 04:09:53;;;;;;;;;29.75;23.00;;;;;-149.69;100.00;58464.25;6290395;22;9820;-96
2022/01/11 04:12:19;;;;;;;;;28.50;26.50;;;;;-149.69;100.00;58464.25;6290034;22;9762;-96
2022/01/11 04:14:44;;;;;;;;;34.75;30.75;;;;;-149.69;100.00;58464.25;6292527;22;9811;-96
2022/01/11 04:17:11;;;;;;;;;32.75;26.00;;;;;-149.69;100.00;58464.25;6297054;22;9859;-96
2022/01/11 04:19:37;;;;;;;;;25.75;23.00;;;;;-149.69;100.00;58464.25;6298111;22;8730;-96
2022/01/11 04:22:03;;;;;;;;;39.25;23.25;;;;;-149.69;100.00;58464.25;6290947;22;9775;-96
2022/01/11 04:24:29;;;;;;;;;32.50;26.00;;;;;-149.69;100.00;58464.25;6291688;22;9963;-96
2022/01/11 04:26:54;;;;;;;;;26.00;21.75;;;;;-149.69;100.00;58464.25;6290493;22;10100;-96
2022/01/11 04:29:20;;;;;;;;;19.75;18.75;;;;;-149.69;100.00;58464.25;6288305;22;8792;-96
2022/01/11 04:31:45;;;;;;;;;25.25;21.75;;;;;-149.69;100.00;58464.25;6289251;22;8735;-96
2022/01/11 04:34:11;;;;;;;;;37.25;24.75;;;;;-149.69;100.00;58464.25;6289785;22;8758;-96
2022/01/11 04:36:37;;;;;;;;;23.50;23.25;;;;;-149.69;100.00;58464.25;6289842;22;8750;-96
2022/01/11 04:39:05;;;;;;;;;28.00;22.50;;;;;-149.69;100.00;58464.25;6291191;22;8743;-96
2022/01/11 04:41:30;;;;;;;;;33.75;25.50;;;;;-149.69;100.00;58464.25;6266109;22;9793;-96
2022/01/11 04:43:56;;;;;;;;;33.25;27.00;;;;;-149.69;100.00;58464.25;6290355;22;9829;-96
2022/01/11 04:46:21;;;;;;;;;33.00;23.75;;;;;-149.69;100.00;58464.25;6291579;22;8762;-96
2022/01/11 04:48:47;;;;;;;;;30.00;25.75;;;;;-149.69;100.00;58464.25;6293086;22;8739;-96
2022/01/11 04:51:13;;;;;;;;;29.00;24.75;;;;;-149.69;100.00;58464.25;6267931;22;8734;-96
2022/01/11 04:53:39;;;;;;;;;26.00;20.25;;;;;-149.69;100.00;58464.25;6266718;22;8773;-96
2022/01/11 04:56:05;;;;;;;;;26.25;23.00;;;;;-149.69;100.00;58464.25;6293507;22;8817;-96
2022/01/11 04:58:31;;;;;;;;;31.25;25.00;;;;;-149.69;100.00;58464.25;6293373;22;8762;-96
2022/01/11 05:00:57;;;;;;;;;26.75;22.00;;;;;-149.69;100.00;58464.25;6294327;22;9788;-96
2022/01/11 05:03:22;;;;;;;;;28.50;20.75;;;;;-149.69;100.00;58464.25;6296389;22;8776;-96
2022/01/11 05:05:48;;;;;;;;;33.50;23.50;;;;;-149.69;100.00;58464.25;6296463;22;10747;-96
2022/01/11 05:08:14;;;;;;;;;23.75;21.00;;;;;-149.69;100.00;58464.25;6297157;22;8778;-96
2022/01/11 05:10:42;;;;;;;;;33.50;26.50;;;;;-149.69;100.00;58464.25;6298939;22;8754;-96
2022/01/11 05:13:16;;;;;;;;;30.50;28.25;;;;;-149.69;100.00;58464.25;6271549;22;8761;-96
2022/01/11 05:15:42;;;;;;;;;27.25;23.50;;;;;-149.69;100.00;58464.25;6293857;22;10048;-96
2022/01/11 05:18:09;;;;;;;;;27.50;23.75;;;;;-149.69;100.00;58464.25;6293507;22;10035;-96
2022/01/11 05:20:36;;;;;;;;;34.75;29.00;;;;;-149.69;100.00;58464.25;6294607;22;9869;-96
2022/01/11 05:23:02;;;;;;;;;36.25;31.00;;;;;-149.69;100.00;58464.25;6294636;22;10027;-96
2022/01/11 05:25:28;;;;;;;;;31.00;26.25;;;;;-149.69;100.00;58464.25;6292832;22;10035;-96
2022/01/11 05:27:54;;;;;;;;;33.25;28.00;;;;;-149.69;100.00;58464.25;6267895;22;11501;-96
2022/01/11 05:30:20;;;;;;;;;33.00;26.50;;;;;-149.69;100.00;58464.25;6295294;22;8742;-96
2022/01/11 05:32:48;;;;;;;;;32.25;30.50;;;;;-149.69;100.00;58464.25;6296130;22;9760;-96
2022/01/11 05:35:15;;;;;;;;;41.75;28.75;;;;;-149.69;100.00;58464.25;6270800;22;9799;-96
2022/01/11 05:37:41;;;;;;;;;29.25;23.00;;;;;-149.69;100.00;58464.25;6293043;22;9807;-96
2022/01/11 05:40:08;;;;;;;;;32.75;29.00;;;;;-149.69;100.00;58464.25;6294545;22;10041;-96
2022/01/11 05:42:35;;;;;;;;;27.00;23.00;;;;;-149.69;100.00;58464.25;6291829;22;8823;-96
2022/01/11 05:45:02;;;;;;;;;33.00;25.00;;;;;-149.69;100.00;58464.25;6268642;22;9744;-96
2022/01/11 05:47:27;;;;;;;;;34.25;25.50;;;;;-149.69;100.00;58464.25;6292291;22;9935;-96
2022/01/11 05:49:53;;;;;;;;;37.00;29.50;;;;;-149.69;100.00;58464.25;6287206;22;9957;-96
2022/01/11 05:52:18;;;;;;;;;37.50;26.75;;;;;-149.69;100.00;58464.25;6287152;22;8768;-96
2022/01/11 05:54:44;;;;;;;;;36.75;30.00;;;;;-149.69;100.00;58464.25;6291253;22;8869;-96
2022/01/11 05:57:09;;;;;;;;;30.00;28.50;;;;;-149.69;100.00;58464.25;6293901;22;8847;-95
2022/01/11 05:59:35;;;;;;;;;38.50;29.00;;;;;-149.69;100.00;58464.25;6290674;22;8778;-96
2022/01/11 06:02:01;;;;;;;;;39.25;27.50;;;;;-149.69;100.00;58464.25;6294724;22;8758;-96
2022/01/11 06:04:26;;;;;;;;;34.75;30.25;;;;;-149.69;100.00;58464.25;6295794;22;8766;-96
2022/01/11 06:06:52;;;;;;;;;39.50;29.25;;;;;-149.69;100.00;58464.25;6292260;22;8738;-96
2022/01/11 06:09:17;;;;;;;;;27.50;25.75;;;;;-149.69;100.00;58464.25;6287425;22;8759;-96
2022/01/11 06:11:43;;;;;;;;;33.50;25.50;;;;;-149.69;100.00;58464.25;6289319;22;8742;-96
2022/01/11 06:14:09;;;;;;;;;29.00;25.50;;;;;-149.69;100.00;58464.25;6289083;22;8754;-96
2022/01/11 06:16:36;;;;;;;;;29.75;25.75;;;;;-149.69;100.00;58464.25;6289442;22;9480;-96
2022/01/11 06:19:02;;;;;;;;;29.50;22.25;;;;;-149.69;100.00;58464.25;6290493;22;8816;-96
2022/01/11 06:21:27;;;;;;;;;39.50;33.25;;;;;-149.69;100.00;58464.25;6290226;22;10114;-96
2022/01/11 06:23:53;;;;;;;;;35.25;26.00;;;;;-149.69;100.00;58464.25;6289588;22;11504;-96
2022/01/11 06:26:18;;;;;;;;;38.75;26.25;;;;;-149.69;100.00;58464.25;6290367;22;8823;-96
2022/01/11 06:28:43;;;;;;;;;41.25;28.00;;;;;-149.69;100.00;58464.25;6290093;22;8762;-96
2022/01/11 06:31:10;;;;;;;;;33.75;26.75;;;;;-149.69;100.00;58464.25;6290771;22;8772;-96
2022/01/11 06:33:36;;;;;;;;;33.00;26.00;;;;;-149.69;100.00;58464.25;6291469;22;8816;-96
2022/01/11 06:36:02;;;;;;;;;34.00;26.50;;;;;-149.69;100.00;58464.25;6290539;22;10269;-96
2022/01/11 06:38:27;;;;;;;;;28.75;27.50;;;;;-149.69;100.00;58464.25;6290664;22;8750;-96
2022/01/11 06:40:53;;;;;;;;;36.25;22.75;;;;;-149.69;100.00;58464.25;6290636;22;8861;-96
2022/01/11 06:43:18;;;;;;;;;33.00;30.25;;;;;-149.69;100.00;58464.25;6291772;22;8778;-96
2022/01/11 06:45:43;;;;;;;;;42.25;37.50;;;;;-149.69;100.00;58464.25;6290323;22;8793;-96
2022/01/11 06:48:10;;;;;;;;;34.25;28.00;;;;;-149.69;100.00;58464.25;6296117;22;8742;-96
2022/01/11 06:50:36;;;;;;;;;37.50;29.50;;;;;-149.69;100.00;58464.25;6298221;22;8757;-96
2022/01/11 06:53:03;;;;;;;;;41.50;29.50;;;;;-149.69;100.00;58464.25;6298255;22;10168;-96
2022/01/11 06:55:29;;;;;;;;;31.50;25.75;;;;;-149.69;100.00;58464.25;6299704;22;10221;-96
2022/01/11 06:57:54;;;;;;;;;36.00;29.50;;;;;-149.69;100.00;58464.25;6296814;22;10242;-96
2022/01/11 07:00:20;;;;;;;;;31.00;26.00;;;;;-149.69;100.00;58464.25;6290875;22;8754;-96
2022/01/11 07:02:49;;;;;;;;;32.25;29.25;;;;;-149.69;100.00;58464.25;6293529;22;8739;-96
2022/01/11 07:05:16;;;;;;;;;40.00;33.75;;;;;-149.69;100.00;58464.25;6292083;22;8671;-96
2022/01/11 07:07:42;;;;;;;;;32.25;29.75;;;;;-149.69;100.00;58464.25;6264297;22;10168;-96
2022/01/11 07:10:08;;;;;;;;;30.50;28.50;;;;;-149.69;100.00;58464.25;6293249;22;10138;-96
2022/01/11 07:12:34;;;;;;;;;33.75;29.00;;;;;-149.69;100.00;58464.25;6292084;22;8769;-96
2022/01/11 07:14:59;;;;;;;;;42.25;29.00;;;;;-149.69;100.00;58464.25;6290348;22;10189;-96
2022/01/11 07:17:25;;;;;;;;;37.50;32.00;;;;;-149.69;100.00;58464.25;6290118;22;8790;-96
2022/01/11 07:19:51;;;;;;;;;33.00;28.00;;;;;-149.69;100.00;58464.25;6290727;22;8750;-96
2022/01/11 07:22:16;;;;;;;;;29.00;28.75;;;;;-149.69;100.00;58464.25;6292368;22;8742;-96
2022/01/11 07:27:25;;;;;;;;;29.75;27.50;;;;;-149.69;100.00;58464.25;6299185;22;8816;-96
2022/01/11 07:29:51;;;;;;;;;48.25;40.75;;;;;-149.69;100.00;58464.25;6262774;22;10030;-94
2022/01/11 07:32:16;;;;;;;;;46.25;36.00;;;;;-149.69;100.00;58464.25;6285294;22;8857;-96
2022/01/11 07:34:43;;;;;;;;;42.25;35.25;;;;;-149.69;100.00;58464.25;6291830;22;10282;-96
2022/01/11 07:37:09;;;;;;;;;39.50;32.00;;;;;-149.69;100.00;58464.25;6287802;22;9651;-95
2022/01/11 07:39:34;;;;;;;;;46.75;37.25;;;;;-149.69;100.00;58464.25;6284004;22;10255;-94
2022/01/11 07:41:59;;;;;;;;;36.50;27.00;;;;;-149.69;100.00;58464.25;6285051;22;8900;-95
2022/01/11 07:44:25;;;;;;;;;52.50;37.00;;;;;-149.69;100.00;58464.25;6282855;22;9548;-95
2022/01/11 07:46:52;;;;;;;;;48.00;37.50;;;;;-149.69;100.00;58464.25;6283158;22;8762;-95
2022/01/11 07:49:18;;;;;;;;;46.75;39.75;;;;;-149.69;100.00;58464.25;6257243;22;8876;-96
2022/01/11 07:51:44;;;;;;;;;40.00;34.50;;;;;-149.69;100.00;58464.25;6283534;22;10494;-96
2022/01/11 07:54:10;;;;;;;;;40.75;34.25;;;;;-149.69;100.00;58464.25;6282537;22;10454;-96
2022/01/11 07:56:36;;;;;;;;;33.75;28.75;;;;;-149.69;100.00;58464.25;6283710;22;8746;-96
2022/01/11 07:59:01;;;;;;;;;44.25;37.00;;;;;-149.69;100.00;58464.25;6256298;22;9499;-96
2022/01/11 08:01:27;;;;;;;;;45.00;37.25;;;;;-149.69;100.00;58464.25;6282979;22;9082;-95
2022/01/11 08:03:52;;;;;;;;;37.50;33.75;;;;;-149.69;100.00;58464.25;6283155;22;8863;-96
2022/01/11 08:06:17;;;;;;;;;47.00;37.50;;;;;-149.69;100.00;58464.25;6284243;22;8743;-96
2022/01/11 08:08:43;;;;;;;;;42.00;35.75;;;;;-149.69;100.00;58464.25;6281995;22;8774;-95
2022/01/11 08:11:08;;;;;;;;;46.25;38.50;;;;;-149.69;100.00;58464.25;6283114;22;8746;-96
2022/01/11 08:13:34;;;;;;;;;43.75;37.75;;;;;-149.69;100.00;58464.25;6254421;22;9106;-95
2022/01/11 08:15:59;;;;;;;;;48.25;37.50;;;;;-149.69;100.00;58464.25;6283006;22;8758;-95
2022/01/11 08:18:25;;;;;;;;;49.25;36.00;;;;;-149.69;100.00;58464.25;6282766;22;8754;-96
2022/01/11 08:20:50;;;;;;;;;49.75;39.50;;;;;-149.69;100.00;58464.25;6283228;22;8755;-95
2022/01/11 08:23:16;;;;;;;;;38.00;33.75;;;;;-149.69;100.00;58464.25;6286229;22;8789;-96
2022/01/11 08:25:42;;;;;;;;;38.00;33.25;;;;;-149.69;100.00;58464.25;6293742;22;8782;-96
2022/01/11 08:28:13;;;;;;;;;44.25;35.00;;;;;-149.69;100.00;58464.25;6269691;22;8746;-96
2022/01/11 08:30:39;;;;;;;;;44.00;33.75;;;;;-149.69;100.00;58464.25;6261628;22;10369;-94
2022/01/11 08:33:05;;;;;;;;;40.25;33.00;;;;;-149.69;100.00;58464.25;6256372;22;10590;-94
2022/01/11 08:35:32;;;;;;;;;38.50;30.75;;;;;-149.69;100.00;58464.25;6261766;22;8842;-95
2022/01/11 08:37:58;;;;;;;;;38.25;34.00;;;;;-149.69;100.00;58464.25;6290352;22;10283;-96
2022/01/11 08:40:25;;;;;;;;;45.00;40.25;;;;;-149.69;100.00;58464.25;6262926;22;10403;-96
2022/01/11 08:42:51;;;;;;;;;40.00;33.25;;;;;-149.69;100.00;58464.25;6263065;22;10602;-96
2022/01/11 08:45:17;;;;;;;;;38.00;30.25;;;;;-149.69;100.00;58464.25;6259860;22;10612;-96
2022/01/11 08:47:42;;;;;;;;;47.75;38.25;;;;;-149.69;100.00;58464.25;6231181;22;8776;-96
2022/01/11 08:50:13;;;;;;;;;44.75;40.00;;;;;-149.69;100.00;58464.25;6258029;22;8749;-96
2022/01/11 08:52:40;;;;;;;;;42.00;37.50;;;;;-149.69;100.00;58464.25;6228321;22;8748;-96
2022/01/11 08:55:07;;;;;;;;;49.00;37.00;;;;;-149.69;100.00;58464.25;6236349;22;10723;-96
2022/01/11 08:57:33;;;;;;;;;38.50;30.75;;;;;-149.69;100.00;58464.25;6229158;22;10504;-96
2022/01/11 08:59:59;;;;;;;;;42.25;33.50;;;;;-149.69;100.00;58464.25;6230609;22;10466;-96
2022/01/11 09:02:24;;;;;;;;;41.25;32.50;;;;;-149.69;100.00;58464.25;6229588;22;10429;-94
2022/01/11 09:04:52;;;;;;;;;44.75;39.50;;;;;-149.69;100.00;58464.25;6232894;22;8871;-93
2022/01/11 09:07:17;;;;;;;;;52.00;39.50;;;;;-149.69;100.00;58464.25;6235332;22;8689;-94
2022/01/11 09:09:43;;;;;;;;;40.00;33.75;;;;;-149.69;100.00;58464.25;6259768;22;10596;-94
2022/01/11 09:12:12;;;;;;;;;45.25;35.25;;;;;-149.69;100.00;58464.25;6253439;22;8827;-96
2022/01/11 09:14:38;;;;;;;;;37.25;33.25;;;;;-149.69;100.00;58464.25;6226079;22;9729;-95
2022/01/11 09:17:03;;;;;;;;;46.00;39.25;;;;;-149.69;100.00;58464.25;6227474;22;10516;-92
2022/01/11 09:19:30;;;;;;;;;41.00;35.00;;;;;-149.69;100.00;58464.25;6255072;22;8835;-96
2022/01/11 09:21:57;;;;;;;;;40.75;38.75;;;;;-149.69;100.00;58464.25;6225364;22;8741;-95
2022/01/11 09:24:29;;;;;;;;;51.00;36.50;;;;;-149.69;100.00;58464.25;6222000;22;10520;-89
2022/01/11 09:26:58;;;;;;;;;47.00;35.25;;;;;-149.69;100.00;58464.25;6251848;22;10470;-91
2022/01/11 09:29:25;;;;;;;;;47.00;39.25;;;;;-149.69;100.00;58464.25;6225124;22;10346;-93
2022/01/11 09:31:50;;;;;;;;;37.50;32.00;;;;;-149.69;100.00;58464.25;6251609;22;10357;-91
2022/01/11 09:34:16;;;;;;;;;43.75;38.75;;;;;-149.69;100.00;58464.25;6223038;22;10518;-89
2022/01/11 09:36:41;;;;;;;;;45.50;35.25;;;;;-149.69;100.00;58464.25;6223252;22;8906;-92
2022/01/11 09:39:07;;;;;;;;;45.50;39.25;;;;;-149.69;100.00;58464.25;6221894;22;8757;-89
2022/01/11 09:41:34;;;;;;;;;43.75;37.50;;;;;-149.69;100.00;58464.25;6245368;22;8797;-92
2022/01/11 09:44:00;;;;;;;;;44.00;35.00;;;;;-149.69;100.00;58464.25;6250970;22;8757;-90
2022/01/11 09:46:25;;;;;;;;;50.25;42.00;;;;;-149.69;100.00;58464.25;6277289;22;10350;-92
2022/01/11 09:48:51;;;;;;;;;46.00;38.50;;;;;-149.69;100.00;58464.25;6253381;22;9242;-89
2022/01/11 09:51:16;;;;;;;;;46.50;35.25;;;;;-149.69;100.00;58464.25;6281292;22;8753;-93
2022/01/11 09:53:41;;;;;;;;;42.00;39.50;;;;;-149.69;100.00;58464.25;6278249;22;8892;-90
2022/01/11 09:56:08;;;;;;;;;53.00;43.00;;;;;-149.69;100.00;58464.25;6254874;22;9096;-96
2022/01/11 09:58:35;;;;;;;;;46.50;38.00;;;;;-149.69;100.00;58464.25;6284467;22;8697;-96
2022/01/11 10:01:06;;;;;;;;;46.75;39.75;;;;;-149.69;100.00;58464.25;6262302;22;10290;-96
2022/01/11 10:03:57;;;;;;;;;44.25;34.25;;;;;-149.69;100.00;58464.25;6232803;22;10471;-92
2022/01/11 10:06:24;;;;;;;;;40.00;36.75;;;;;-149.69;100.00;58464.25;6278289;22;10344;-93
2022/01/11 10:09:12;;;;;;;;;48.75;37.25;;;;;-149.69;100.00;58464.25;6282160;22;10359;-94
2022/01/11 10:11:42;;;;;;;;;42.50;38.25;;;;;-149.69;100.00;58464.25;6282801;22;10235;-93
2022/01/11 10:14:26;;;;;;;;;49.50;38.75;;;;;-149.69;100.00;58464.25;6282576;22;10371;-96
2022/01/11 10:17:11;;;;;;;;;47.50;39.75;;;;;-149.69;100.00;58464.25;6277555;22;10343;-88
2022/01/11 10:19:41;;;;;;;;;57.50;39.75;;;;;-149.69;100.00;58464.25;6255269;22;10658;-92
2022/01/11 10:22:12;;;;;;;;;47.50;40.25;;;;;-149.69;100.00;58464.25;6278597;22;10568;-90
2022/01/11 10:24:42;;;;;;;;;41.75;37.50;;;;;-149.69;100.00;58464.25;6281217;22;10336;-88
2022/01/11 10:27:13;;;;;;;;;51.25;39.25;;;;;-149.69;100.00;58464.25;6257286;22;10171;-90
2022/01/11 10:29:45;;;;;;;;;53.25;40.75;;;;;-149.69;100.00;58464.25;6284023;22;10613;-90
2022/01/11 10:32:19;;;;;;;;;44.25;39.00;;;;;-149.69;100.00;58464.25;6282065;22;11488;-89
2022/01/11 10:34:48;;;;;;;;;51.25;42.25;;;;;-149.69;100.00;58464.25;6278333;22;10370;-89
2022/01/11 10:37:15;;;;;;;;;42.25;36.75;;;;;-149.69;100.00;58464.25;6253156;22;10286;-89
2022/01/11 10:39:44;;;;;;;;;58.75;43.00;;;;;-149.69;100.00;58464.25;6250482;22;10454;-90
2022/01/11 10:42:28;;;;;;;;;59.00;42.75;;;;;-149.69;100.00;58464.25;6252535;22;10621;-89
2022/01/11 10:44:55;;;;;;;;;51.50;41.25;;;;;-149.69;100.00;58464.25;6254033;22;10684;-91
2022/01/11 10:47:28;;;;;;;;;45.25;38.25;;;;;-149.69;100.00;58464.25;6255935;22;10701;-91
2022/01/11 10:49:59;;;;;;;;;52.75;43.50;;;;;-149.69;100.00;58464.25;6276677;22;10676;-90
2022/01/11 10:52:31;;;;;;;;;57.50;47.00;;;;;-149.69;100.00;58464.25;6251783;22;10702;-92
2022/01/11 10:54:58;;;;;;;;;60.75;42.25;;;;;-149.69;100.00;58464.25;6277776;22;10741;-92
2022/01/11 10:57:27;;;;;;;;;53.00;44.50;;;;;-149.69;100.00;58464.25;6277624;22;11010;-91
2022/01/11 11:00:08;;;;;;;;;63.00;45.50;;;;;-149.69;100.00;58464.25;6277155;22;10809;-90
2022/01/11 11:02:34;;;;;;;;;58.00;43.25;;;;;-149.69;100.00;58464.25;6282623;22;10776;-91
2022/01/11 11:05:17;;;;;;;;;61.75;45.00;;;;;-149.69;100.00;58464.25;6287501;22;10678;-89